createdAt,value
2022-08-07T00:02:39.860Z,97955.59
2022-08-07T00:04:59.990Z,97954.75
2022-08-07T00:07:27.324Z,97939.06
2022-08-07T00:10:19.166Z,97940.19
2022-08-07T00:12:57.740Z,97957.25
2022-08-07T00:15:37.941Z,97967.19
2022-08-07T00:18:19.757Z,97970.47
2022-08-07T00:20:49.692Z,97955.34
2022-08-07T00:23:17.258Z,97963.88
2022-08-07T00:28:19.095Z,97944.34
2022-08-07T00:30:49.061Z,97949.84
2022-08-07T00:33:15.880Z,97916.25
2022-08-07T00:35:46.483Z,97956.19
2022-08-07T00:38:16.237Z,97942.94
2022-08-07T00:40:58.582Z,97931.13
2022-08-07T00:43:59.388Z,97925.91
2022-08-07T00:46:14.256Z,97934.72
2022-08-07T00:48:42.187Z,97914.34
2022-08-07T00:51:10.515Z,97946.03
2022-08-07T00:53:39.261Z,97926.41
2022-08-07T00:56:18.724Z,97913.78
2022-08-07T00:58:47.176Z,97912.69
2022-08-07T01:01:18.084Z,97935.81
2022-08-07T01:03:54.600Z,97936.91
2022-08-07T01:06:24.513Z,97935.81
2022-08-07T01:08:53.038Z,97935.81
2022-08-07T01:12:09.490Z,97933.88
2022-08-07T01:14:08.871Z,97930.56
2022-08-07T01:16:37.153Z,97931.94
2022-08-07T01:19:18.239Z,97908.81
2022-08-07T01:21:53.342Z,97950.94
2022-08-07T01:24:22.666Z,97933.59
2022-08-07T01:26:54.081Z,97933.31
2022-08-07T01:29:27.879Z,97911.03
2022-08-07T01:31:59.694Z,97929.44
2022-08-07T01:34:31.135Z,97909.34
2022-08-07T01:36:58.737Z,97917.06
2022-08-07T01:39:40.615Z,97939.63
2022-08-07T01:42:38.433Z,97924.19
2022-08-07T01:45:02.095Z,97922.00
2022-08-07T01:48:19.413Z,97932.47
2022-08-07T01:50:16.825Z,97948.19
2022-08-07T01:52:58.530Z,97911.84
2022-08-07T01:55:50.781Z,97946.28
2022-08-07T01:58:29.500Z,97941.03
2022-08-07T02:01:10.402Z,97923.94
2022-08-07T02:04:00.056Z,97930.25
2022-08-07T02:06:32.558Z,97920.91
2022-08-07T02:09:04.220Z,97928.06
2022-08-07T02:12:03.720Z,97922.00
2022-08-07T02:14:35.742Z,97930.56
2022-08-07T02:17:08.088Z,97925.88
2022-08-07T02:20:05.311Z,97907.97
2022-08-07T02:22:26.221Z,97911.84
2022-08-07T02:24:57.569Z,97907.16
2022-08-07T02:27:26.795Z,97904.97
2022-08-07T02:30:03.951Z,97926.41
2022-08-07T02:32:39.388Z,97947.94
2022-08-07T02:36:28.644Z,97946.56
2022-08-07T02:38:16.357Z,97940.19
2022-08-07T02:40:46.444Z,97928.34
2022-08-07T02:43:14.894Z,97923.66
2022-08-07T02:45:58.102Z,97923.91
2022-08-07T02:48:26.626Z,97938.53
2022-08-07T02:50:56.172Z,97949.53
2022-08-07T02:53:31.561Z,97933.03
2022-08-07T02:56:12.835Z,97930.25
2022-08-07T02:58:47.481Z,97923.94
2022-08-07T03:01:19.139Z,97925.84
2022-08-07T03:04:03.502Z,97934.94
2022-08-07T03:06:36.535Z,97924.22
2022-08-07T03:09:07.747Z,97918.16
2022-08-07T03:11:51.729Z,97911.25
2022-08-07T03:14:20.228Z,97924.75
2022-08-07T03:16:52.419Z,97939.06
2022-08-07T03:19:20.098Z,97933.56
2022-08-07T03:21:50.586Z,97940.72
2022-08-07T03:24:27.243Z,97947.91
2022-08-07T03:26:59.604Z,97955.84
2022-08-07T03:29:33.658Z,97972.63
2022-08-07T03:32:03.335Z,97951.44
2022-08-07T03:34:32.089Z,97967.94
2022-08-07T03:37:12.278Z,97974.84
2022-08-07T03:39:42.205Z,97961.63
2022-08-07T03:42:27.343Z,97974.31
2022-08-07T03:44:57.758Z,97971.81
2022-08-07T03:47:27.811Z,97986.16
2022-08-07T03:49:58.220Z,97963.25
2022-08-07T03:52:29.492Z,97989.75
2022-08-07T03:55:07.151Z,97968.50
2022-08-07T03:58:33.518Z,97993.03
2022-08-07T04:00:30.410Z,98005.44
2022-08-07T04:03:03.830Z,97984.78
2022-08-07T04:05:40.983Z,97988.88
2022-08-07T04:08:16.069Z,97995.78
2022-08-07T04:10:54.354Z,98009.53
2022-08-07T04:14:09.403Z,98002.38
2022-08-07T04:16:31.282Z,98012.25
2022-08-07T04:19:04.347Z,98007.53
2022-08-07T04:21:58.934Z,97999.28
2022-08-07T04:24:33.790Z,98019.88
2022-08-07T04:27:03.038Z,97998.66
2022-08-07T04:29:48.675Z,98008.25
2022-08-07T04:32:18.562Z,98003.56
2022-08-07T04:35:06.290Z,98014.25
2022-08-07T04:37:40.417Z,98018.06
2022-08-07T04:40:22.857Z,98015.81
2022-08-07T04:43:01.174Z,98011.66
2022-08-07T04:45:57.860Z,98009.63
2022-08-07T04:48:46.268Z,98018.84
2022-08-07T04:51:39.481Z,98011.69
2022-08-07T04:54:30.056Z,98030.00
2022-08-07T04:58:15.000Z,98045.41
2022-08-07T05:00:13.090Z,98046.16
2022-08-07T05:02:53.181Z,98043.81
2022-08-07T05:05:53.176Z,98054.22
2022-08-07T05:08:59.260Z,98043.72
2022-08-07T05:11:24.519Z,98039.53
2022-08-07T05:14:53.904Z,98027.88
2022-08-07T05:17:11.700Z,98037.00
2022-08-07T05:19:44.863Z,98032.19
2022-08-07T05:22:26.699Z,98032.69
2022-08-07T05:24:57.325Z,98040.84
2022-08-07T05:28:03.575Z,98073.94
2022-08-07T05:30:25.082Z,98044.88
2022-08-07T05:33:02.614Z,98062.72
2022-08-07T05:35:41.944Z,98078.91
2022-08-07T05:38:11.085Z,98080.13
2022-08-07T05:40:50.718Z,98065.44
2022-08-07T05:43:50.215Z,98072.19
2022-08-07T05:46:07.333Z,98085.72
2022-08-07T05:48:34.521Z,98089.94
2022-08-07T05:51:02.206Z,98108.22
2022-08-07T05:54:13.570Z,98097.44
2022-08-07T05:56:20.099Z,98105.19
2022-08-07T05:58:58.576Z,98090.66
2022-08-07T06:01:27.588Z,98113.31
2022-08-07T06:04:05.232Z,98093.66
2022-08-07T06:06:34.428Z,98085.28
2022-08-07T06:09:04.576Z,98084.03
2022-08-07T06:11:33.863Z,98088.56
2022-08-07T06:14:12.211Z,98093.22
2022-08-07T06:16:50.488Z,98105.66
2022-08-07T06:19:58.113Z,98083.44
2022-08-07T06:22:23.026Z,98108.66
2022-08-07T06:24:55.562Z,98085.56
2022-08-07T06:28:00.390Z,98082.44
2022-08-07T06:30:35.105Z,98083.88
2022-08-07T06:32:59.551Z,98085.25
2022-08-07T06:35:38.962Z,98078.56
2022-08-07T06:38:20.142Z,98124.44
2022-08-07T06:40:52.869Z,98107.78
2022-08-07T06:43:23.582Z,98104.69
2022-08-07T06:45:50.959Z,98094.22
2022-08-07T06:48:24.830Z,98086.34
2022-08-07T06:50:54.439Z,98081.78
2022-08-07T06:54:11.922Z,98103.34
2022-08-07T06:56:15.490Z,98074.97
2022-08-07T07:00:11.707Z,98083.19
2022-08-07T07:01:33.231Z,98114.59
2022-08-07T07:04:32.784Z,98109.22
2022-08-07T07:07:01.154Z,98113.38
2022-08-07T07:09:30.938Z,98110.47
2022-08-07T07:12:16.604Z,98116.88
2022-08-07T07:14:58.207Z,98120.75
2022-08-07T07:17:38.850Z,98108.41
2022-08-07T07:20:25.887Z,98103.31
2022-08-07T07:24:08.111Z,98091.34
2022-08-07T07:26:32.658Z,98107.41
2022-08-07T07:29:57.298Z,98124.47
2022-08-07T07:31:47.792Z,98131.25
2022-08-07T07:34:20.051Z,98122.19
2022-08-07T07:36:54.011Z,98103.84
2022-08-07T07:39:25.520Z,98125.00
2022-08-07T07:42:08.718Z,98115.31
2022-08-07T07:44:43.715Z,98128.78
2022-08-07T07:47:22.727Z,98112.38
2022-08-07T07:50:35.671Z,98106.59
2022-08-07T07:52:42.234Z,98114.59
2022-08-07T07:55:11.462Z,98118.06
2022-08-07T07:57:53.439Z,98126.25
2022-08-07T08:00:31.407Z,98106.47
2022-08-07T08:03:16.295Z,98114.25
2022-08-07T08:05:55.098Z,98117.06
2022-08-07T08:08:32.405Z,98109.34
2022-08-07T08:11:09.293Z,98106.09
2022-08-07T08:13:54.680Z,98123.19
2022-08-07T08:16:50.750Z,98087.22
2022-08-07T08:20:17.030Z,98107.00
2022-08-07T08:22:32.979Z,98114.13
2022-08-07T08:25:41.160Z,98096.09
2022-08-07T08:28:12.860Z,98106.13
2022-08-07T08:30:51.508Z,98089.69
2022-08-07T08:33:33.193Z,98079.66
2022-08-07T08:36:01.816Z,98066.06
2022-08-07T08:38:41.248Z,98114.94
2022-08-07T08:41:31.491Z,98100.94
2022-08-07T08:44:29.366Z,98099.31
2022-08-07T08:47:15.020Z,98081.75
2022-08-07T08:50:08.899Z,98091.88
2022-08-07T08:52:53.680Z,98075.59
2022-08-07T08:55:54.674Z,98099.88
2022-08-07T08:58:47.328Z,98106.41
2022-08-07T09:01:39.872Z,98107.94
2022-08-07T09:04:30.222Z,98095.03
2022-08-07T09:07:27.225Z,98093.41
2022-08-07T09:10:11.629Z,98074.66
2022-08-07T09:13:09.575Z,98096.13
2022-08-07T09:16:24.061Z,98086.19
2022-08-07T09:19:53.412Z,98099.41
2022-08-07T09:24:28.895Z,98083.13
2022-08-07T09:26:22.309Z,98076.53
2022-08-07T09:30:04.214Z,98073.78
2022-08-07T09:32:17.296Z,98073.13
2022-08-07T09:36:02.889Z,98076.09
2022-08-07T09:38:50.169Z,98076.38
2022-08-07T09:42:02.994Z,98067.69
2022-08-07T09:47:27.347Z,98056.84
2022-08-07T09:47:56.197Z,98072.94
2022-08-07T09:51:01.179Z,98074.25
2022-08-07T09:53:40.889Z,98059.84
2022-08-07T09:56:37.668Z,98058.28
2022-08-07T09:59:37.109Z,98068.69
2022-08-07T10:02:39.569Z,98057.69
2022-08-07T10:05:59.902Z,98063.00
2022-08-07T10:08:41.930Z,98058.09
2022-08-07T10:12:02.013Z,98052.47
2022-08-07T10:14:40.148Z,98041.34
2022-08-07T10:18:02.558Z,98049.03
2022-08-07T10:20:39.438Z,98047.09
2022-08-07T10:24:06.733Z,98047.22
2022-08-07T10:27:01.625Z,98040.47
2022-08-07T10:30:00.718Z,98051.72
2022-08-07T10:32:54.455Z,98039.56
2022-08-07T10:35:53.536Z,98054.34
2022-08-07T10:38:51.216Z,98024.34
2022-08-07T10:41:54.635Z,98022.81
2022-08-07T10:45:45.404Z,98035.38
2022-08-07T10:48:07.815Z,98046.69
2022-08-07T10:50:58.514Z,98021.34
2022-08-07T10:53:41.842Z,98044.59
2022-08-07T10:56:33.274Z,98043.41
2022-08-07T10:59:21.174Z,98042.50
2022-08-07T11:02:04.877Z,98052.66
2022-08-07T11:05:10.039Z,98022.78
2022-08-07T11:08:00.449Z,98029.19
2022-08-07T11:10:32.069Z,98011.19
2022-08-07T11:13:42.465Z,98023.28
2022-08-07T11:15:57.359Z,98005.47
2022-08-07T11:18:50.909Z,98035.16
2022-08-07T11:21:45.242Z,98035.91
2022-08-07T11:24:24.132Z,98033.00
2022-08-07T11:27:13.515Z,98025.41
2022-08-07T11:30:10.176Z,98011.25
2022-08-07T11:33:15.037Z,98032.66
2022-08-07T11:36:30.787Z,98029.47
2022-08-07T11:39:59.346Z,98037.13
2022-08-07T11:42:22.096Z,98031.03
2022-08-07T11:45:38.334Z,98047.72
2022-08-07T11:48:30.080Z,98065.34
2022-08-07T11:51:41.142Z,98066.88
2022-08-07T11:54:11.740Z,98061.28
2022-08-07T11:57:03.061Z,98056.78
2022-08-07T12:00:11.549Z,98058.41
2022-08-07T12:02:57.884Z,98044.31
2022-08-07T12:05:41.707Z,98037.81
2022-08-07T12:08:26.031Z,98036.13
2022-08-07T12:11:21.574Z,98024.88
2022-08-07T12:14:24.632Z,98012.84
2022-08-07T12:17:00.994Z,98028.69
2022-08-07T12:20:02.554Z,98033.56
2022-08-07T12:22:46.958Z,98029.72
2022-08-07T12:26:05.473Z,98029.56
2022-08-07T12:28:53.029Z,98025.47
2022-08-07T12:31:52.998Z,98019.25
2022-08-07T12:34:29.189Z,98008.22
2022-08-07T12:36:57.707Z,98025.44
2022-08-07T12:39:44.410Z,98016.53
2022-08-07T12:42:17.679Z,98002.03
2022-08-07T12:44:55.311Z,97995.94
2022-08-07T12:47:40.544Z,98030.56
2022-08-07T12:50:34.081Z,98023.47
2022-08-07T12:53:27.645Z,98021.53
2022-08-07T12:56:26.579Z,98021.75
2022-08-07T12:58:57.943Z,98029.97
2022-08-07T13:01:29.363Z,98029.50
2022-08-07T13:04:31.703Z,98017.81
2022-08-07T13:08:14.414Z,98019.13
2022-08-07T13:10:39.757Z,98020.75
2022-08-07T13:13:48.591Z,98019.25
2022-08-07T13:16:30.579Z,98006.78
2022-08-07T13:19:45.680Z,98020.53
2022-08-07T13:22:32.812Z,98028.31
2022-08-07T13:25:29.930Z,98071.94
2022-08-07T13:28:18.433Z,98082.66
2022-08-07T13:31:01.815Z,98100.09
2022-08-07T13:34:30.479Z,98116.31
2022-08-07T13:37:10.938Z,98109.25
2022-08-07T13:40:35.883Z,98113.06
2022-08-07T13:43:03.046Z,98120.81
2022-08-07T13:46:11.254Z,98136.38
2022-08-07T13:48:27.787Z,98148.19
2022-08-07T13:51:27.447Z,98133.81
2022-08-07T13:53:59.749Z,98130.31
2022-08-07T13:56:35.401Z,98148.44
2022-08-07T13:59:20.484Z,98114.28
2022-08-07T14:02:12.890Z,98116.47
2022-08-07T14:04:54.646Z,98138.00
2022-08-07T14:07:27.963Z,98135.53
2022-08-07T14:10:08.423Z,98136.38
2022-08-07T14:12:54.964Z,98129.63
2022-08-07T14:15:31.841Z,98113.88
2022-08-07T14:18:27.565Z,98096.44
2022-08-07T14:22:00.350Z,98118.81
2022-08-07T14:24:05.186Z,98120.81
2022-08-07T14:26:50.679Z,98077.28
2022-08-07T14:30:06.340Z,98073.50
2022-08-07T14:32:13.605Z,98066.06
2022-08-07T14:34:46.101Z,98084.25
2022-08-07T14:37:17.409Z,98053.66
2022-08-07T14:40:16.275Z,98078.44
2022-08-07T14:48:19.591Z,98065.13
2022-08-07T14:50:56.442Z,98069.50
2022-08-07T14:54:03.758Z,98028.69
2022-08-07T14:56:30.142Z,98039.69
2022-08-07T14:59:13.950Z,98056.78
2022-08-07T15:01:58.790Z,98053.66
2022-08-07T15:04:26.339Z,98038.75
2022-08-07T15:06:57.228Z,98020.78
2022-08-07T15:09:57.224Z,98049.03
2022-08-07T15:12:25.801Z,98022.59
2022-08-07T15:15:09.320Z,98042.13
2022-08-07T15:17:56.699Z,98024.16
2022-08-07T15:23:22.602Z,98036.75
2022-08-07T15:26:11.099Z,98052.97
2022-08-07T15:32:00.845Z,98010.31
2022-08-07T15:34:26.113Z,98035.44
2022-08-07T15:37:03.209Z,98022.44
2022-08-07T15:39:56.539Z,98039.50
2022-08-07T15:42:47.618Z,98035.63
2022-08-07T15:45:20.789Z,98040.91
2022-08-07T15:48:02.011Z,97993.78
2022-08-07T15:50:37.729Z,98020.78
2022-08-07T15:53:51.639Z,98021.84
2022-08-07T15:56:24.122Z,98029.78
2022-08-07T15:58:58.920Z,98026.75
2022-08-07T16:01:39.342Z,98051.53
2022-08-07T16:04:15.272Z,98049.34
2022-08-07T16:06:54.445Z,98038.59
2022-08-07T16:09:47.980Z,98057.44
2022-08-07T16:12:28.901Z,98051.72
2022-08-07T16:15:55.578Z,98065.50
2022-08-07T16:18:14.299Z,98055.13
2022-08-07T16:22:02.984Z,98030.94
2022-08-07T16:24:33.700Z,98038.94
2022-08-07T16:27:39.829Z,98042.63
2022-08-07T16:30:31.085Z,98040.44
2022-08-07T16:34:01.509Z,98025.59
2022-08-07T16:36:22.347Z,98044.56
2022-08-07T16:39:33.764Z,98046.22
2022-08-07T16:42:49.767Z,98043.19
2022-08-07T16:46:47.584Z,98048.91
2022-08-07T16:48:27.792Z,98028.81
2022-08-07T16:52:01.667Z,98055.22
2022-08-07T16:54:54.359Z,98054.94
2022-08-07T16:58:01.159Z,98034.31
2022-08-07T17:00:30.825Z,98024.41
2022-08-07T17:03:06.852Z,98053.00
2022-08-07T17:06:19.636Z,98043.06
2022-08-07T17:09:09.150Z,98051.06
2022-08-07T17:12:33.470Z,98035.88
2022-08-07T17:14:48.954Z,98048.00
2022-08-07T17:17:58.851Z,98065.34
2022-08-07T17:20:36.173Z,98062.03
2022-08-07T17:23:33.404Z,98063.91
2022-08-07T17:26:22.678Z,98069.16
2022-08-07T17:30:13.027Z,98068.00
2022-08-07T17:32:28.336Z,98059.97
2022-08-07T17:35:51.139Z,98052.88
2022-08-07T17:38:34.349Z,98074.09
2022-08-07T17:42:03.010Z,98082.38
2022-08-07T17:44:34.025Z,98068.91
2022-08-07T17:47:08.409Z,98089.06
2022-08-07T17:49:45.309Z,98057.63
2022-08-07T17:52:36.418Z,98066.72
2022-08-07T17:56:00.976Z,98082.38
2022-08-07T17:58:46.457Z,98096.72
2022-08-07T18:01:34.716Z,98098.38
2022-08-07T18:04:24.663Z,98103.91
2022-08-07T18:07:35.556Z,98117.13
2022-08-07T18:10:32.586Z,98081.56
2022-08-07T18:12:59.929Z,98125.66
2022-08-07T18:15:35.663Z,98113.00
2022-08-07T18:18:33.023Z,98111.94
2022-08-07T18:21:37.383Z,98135.38
2022-08-07T18:24:07.365Z,98130.44
2022-08-07T18:26:51.886Z,98122.47
2022-08-07T18:30:08.388Z,98130.19
2022-08-07T18:33:15.967Z,98162.16
2022-08-07T18:35:57.615Z,98167.66
2022-08-07T18:38:55.560Z,98155.53
2022-08-07T18:41:54.273Z,98157.16
2022-08-07T18:45:44.772Z,98178.13
2022-08-07T18:48:00.674Z,98168.47
2022-08-07T18:50:52.618Z,98147.78
2022-08-07T18:53:44.248Z,98192.44
2022-08-07T18:56:30.834Z,98199.91
2022-08-07T18:59:47.823Z,98196.03
2022-08-07T19:02:34.403Z,98187.50
2022-08-07T19:05:15.895Z,98194.97
2022-08-07T19:08:05.441Z,98204.09
2022-08-07T19:10:52.242Z,98194.72
2022-08-07T19:13:33.545Z,98211.53
2022-08-07T19:16:43.687Z,98176.81
2022-08-07T19:19:50.983Z,98209.88
2022-08-07T19:22:39.552Z,98216.22
2022-08-07T19:26:24.611Z,98215.66
2022-08-07T19:30:55.675Z,98185.59
2022-08-07T19:31:41.923Z,98197.75
2022-08-07T19:34:08.846Z,98185.91
2022-08-07T19:36:43.310Z,98216.50
2022-08-07T19:39:40.343Z,98207.38
2022-08-07T19:42:24.857Z,98202.94
2022-08-07T19:44:55.558Z,98219.22
2022-08-07T19:47:29.070Z,98203.25
2022-08-07T19:50:42.985Z,98232.50
2022-08-07T19:52:58.975Z,98191.94
2022-08-07T19:55:46.820Z,98213.75
2022-08-07T19:58:27.937Z,98225.63
2022-08-07T20:00:57.920Z,98217.34
2022-08-07T20:03:34.552Z,98195.88
2022-08-07T20:06:06.217Z,98195.88
2022-08-07T20:08:37.650Z,98244.44
2022-08-07T20:11:15.190Z,98200.59
2022-08-07T20:14:03.150Z,98217.97
2022-08-07T20:16:36.852Z,98220.69
2022-08-07T20:19:11.886Z,98241.13
2022-08-07T20:21:47.338Z,98205.91
2022-08-07T20:24:24.218Z,98211.44
2022-08-07T20:26:59.098Z,98207.56
2022-08-07T20:29:48.093Z,98215.84
2022-08-07T20:32:52.162Z,98204.00
2022-08-07T20:35:26.530Z,98209.25
2022-08-07T20:37:58.595Z,98210.88
2022-08-07T20:40:32.249Z,98211.44
2022-08-07T20:43:02.250Z,98228.00
2022-08-07T20:46:27.638Z,98209.28
2022-08-07T20:48:28.771Z,98207.34
2022-08-07T20:50:59.700Z,98215.34
2022-08-07T20:54:03.434Z,98202.41
2022-08-07T20:56:16.648Z,98236.31
2022-08-07T20:58:56.767Z,98237.16
2022-08-07T21:01:26.371Z,98217.50
2022-08-07T21:04:22.079Z,98245.09
2022-08-07T21:06:53.392Z,98221.38
2022-08-07T21:09:24.353Z,98215.28
2022-08-07T21:11:55.779Z,98207.84
2022-08-07T21:14:32.958Z,98222.44
2022-08-07T21:18:02.796Z,98216.38
2022-08-07T21:20:04.578Z,98206.41
2022-08-07T21:22:39.745Z,98238.41
2022-08-07T21:25:20.649Z,98245.56
2022-08-07T21:28:08.842Z,98242.81
2022-08-07T21:30:45.446Z,98243.63
2022-08-07T21:33:20.304Z,98228.69
2022-08-07T21:36:31.686Z,98259.31
2022-08-07T21:39:45.273Z,98255.16
2022-08-07T21:42:42.464Z,98238.22
2022-08-07T21:46:10.554Z,98256.22
2022-08-07T21:48:44.165Z,98233.56
2022-08-07T21:51:25.956Z,98250.13
2022-08-07T21:54:00.440Z,98252.03
2022-08-07T21:56:49.081Z,98251.50
2022-08-07T22:00:02.726Z,98227.19
2022-08-07T22:02:27.906Z,98239.94
2022-08-07T22:05:00.239Z,98220.06
2022-08-07T22:07:42.901Z,98218.44
2022-08-07T22:10:21.590Z,98216.78
2022-08-07T22:12:55.344Z,98238.34
2022-08-07T22:16:42.408Z,98222.84
2022-08-07T22:18:23.863Z,98211.00
2022-08-07T22:22:04.834Z,98241.63
2022-08-07T22:24:50.235Z,98213.16
2022-08-07T22:28:03.214Z,98238.84
2022-08-07T22:30:16.008Z,98222.81
2022-08-07T22:33:09.191Z,98250.94
2022-08-07T22:35:49.927Z,98229.09
2022-08-07T22:38:25.605Z,98214.50
2022-08-07T22:41:07.444Z,98223.84
2022-08-07T22:43:58.737Z,98255.28
2022-08-07T22:47:09.005Z,98220.44
2022-08-07T22:50:20.736Z,98252.50
2022-08-07T22:54:06.686Z,98246.38
2022-08-07T22:56:48.283Z,98213.50
2022-08-07T22:59:49.756Z,98243.56
2022-08-07T23:02:34.617Z,98216.78
2022-08-07T23:06:09.013Z,98243.88
2022-08-07T23:08:30.263Z,98224.84
2022-08-07T23:11:15.737Z,98245.59
2022-08-07T23:14:15.201Z,98222.75
2022-08-07T23:16:55.894Z,98247.34
2022-08-07T23:19:59.922Z,98249.28
2022-08-07T23:22:39.195Z,98257.06
2022-08-07T23:25:36.886Z,98241.88
2022-08-07T23:28:28.896Z,98227.03
2022-08-07T23:31:06.544Z,98249.44
2022-08-07T23:34:34.161Z,98232.84
2022-08-07T23:36:54.708Z,98245.53
2022-08-07T23:39:55.379Z,98249.69
2022-08-07T23:42:47.058Z,98229.25
2022-08-07T23:45:50.109Z,98233.97
2022-08-07T23:48:37.471Z,98242.00
2022-08-07T23:53:01.445Z,98248.03
2022-08-07T23:54:20.013Z,98221.00
2022-08-07T23:57:42.894Z,98244.50
